createdAt,value
2024-01-08T00:00:26.986Z,103020.41
2024-01-08T00:04:28.656Z,103033.91
2024-01-08T00:08:30.196Z,103046.19
2024-01-08T00:12:31.743Z,103046.91
2024-01-08T00:16:33.389Z,103049.50
2024-01-08T00:20:34.854Z,103034.63
2024-01-08T00:24:36.369Z,103043.13
2024-01-08T00:28:37.971Z,103036.75
2024-01-08T00:32:39.527Z,103045.63
2024-01-08T00:36:42.202Z,103047.91
2024-01-08T00:40:44.271Z,103053.88
2024-01-08T00:44:45.903Z,103061.75
2024-01-08T00:48:47.432Z,103057.63
2024-01-08T00:52:48.991Z,103064.84
2024-01-08T00:56:50.545Z,103073.50
2024-01-08T01:00:52.060Z,103075.44
2024-01-08T01:04:53.989Z,103080.28
2024-01-08T01:08:55.587Z,103080.41
2024-01-08T01:12:57.142Z,103078.91
2024-01-08T01:16:59.080Z,103080.56
2024-01-08T01:21:01.160Z,103086.66
2024-01-08T01:25:02.675Z,103089.72
2024-01-08T01:29:04.286Z,103091.38
2024-01-08T01:33:05.860Z,103094.53
2024-01-08T01:37:08.994Z,103091.88
2024-01-08T01:41:11.650Z,103101.13
2024-01-08T01:45:13.196Z,103109.94
2024-01-08T01:49:17.357Z,103104.41
2024-01-08T01:53:19.063Z,103113.25
2024-01-08T01:57:20.842Z,103119.91
2024-01-08T02:01:22.356Z,103110.44
2024-01-08T02:05:24.155Z,103118.81
2024-01-08T02:09:26.092Z,103107.56
2024-01-08T02:13:27.536Z,103118.56
2024-01-08T02:17:29.070Z,103125.84
2024-01-08T02:21:30.816Z,103122.19
2024-01-08T02:25:32.601Z,103115.94
2024-01-08T02:29:34.183Z,103123.03
2024-01-08T02:33:35.821Z,103134.69
2024-01-08T02:37:37.321Z,103138.25
2024-01-08T02:41:38.882Z,103141.22
2024-01-08T02:45:40.478Z,103135.22
2024-01-08T02:49:41.976Z,103139.66
2024-01-08T02:53:43.565Z,103138.81
2024-01-08T02:57:45.036Z,103142.00
2024-01-08T03:01:46.508Z,103139.88
2024-01-08T03:05:48.237Z,103138.38
2024-01-08T03:09:50.456Z,103140.63
2024-01-08T03:13:52.040Z,103149.97
2024-01-08T03:17:53.953Z,103148.31
2024-01-08T03:21:55.520Z,103157.84
2024-01-08T03:25:57.015Z,103147.13
2024-01-08T03:29:58.541Z,103145.59
2024-01-08T03:34:00.455Z,103154.41
2024-01-08T03:38:02.394Z,103152.47
2024-01-08T03:42:04.113Z,103148.69
2024-01-08T03:46:05.694Z,103142.78
2024-01-08T03:50:08.192Z,103164.47
2024-01-08T03:54:09.962Z,103143.50
2024-01-08T03:58:11.610Z,103155.28
2024-01-08T04:02:14.108Z,103157.66
2024-01-08T04:06:15.904Z,103161.34
2024-01-08T04:10:17.481Z,103170.31
2024-01-08T04:14:18.978Z,103184.72
2024-01-08T04:18:20.656Z,103180.13
2024-01-08T04:22:22.190Z,103183.06
2024-01-08T04:26:26.214Z,103179.28
2024-01-08T04:30:27.870Z,103191.69
2024-01-08T04:34:29.386Z,103199.53
2024-01-08T04:38:30.962Z,103212.56
2024-01-08T04:42:32.496Z,103215.84
2024-01-08T04:46:34.056Z,103221.69
2024-01-08T04:50:35.654Z,103227.56
2024-01-08T04:54:37.157Z,103231.75
2024-01-08T04:58:38.685Z,103241.81
2024-01-08T05:02:40.309Z,103254.50
2024-01-08T05:06:44.260Z,103244.28
2024-01-08T05:10:45.836Z,103254.13
2024-01-08T05:14:47.326Z,103256.16
2024-01-08T05:18:49.112Z,103260.47
2024-01-08T05:22:50.693Z,103265.25
2024-01-08T05:26:52.217Z,103260.06
2024-01-08T05:30:53.907Z,103275.38
2024-01-08T05:34:56.179Z,103280.81
2024-01-08T05:39:00.620Z,103268.66
2024-01-08T05:43:02.160Z,103287.94
2024-01-08T05:47:04.036Z,103286.22
2024-01-08T05:51:05.818Z,103288.41
2024-01-08T05:55:07.950Z,103290.38
2024-01-08T05:59:09.567Z,103292.50
2024-01-08T06:03:11.160Z,103299.66
2024-01-08T06:07:12.860Z,103303.38
2024-01-08T06:11:14.434Z,103313.88
2024-01-08T06:15:16.687Z,103319.72
2024-01-08T06:19:18.253Z,103323.13
2024-01-08T06:23:19.815Z,103316.06
2024-01-08T06:27:21.298Z,103313.25
2024-01-08T06:31:23.150Z,103326.38
2024-01-08T06:35:25.047Z,103325.06
2024-01-08T06:39:27.573Z,103330.09
2024-01-08T06:43:29.080Z,103335.66
2024-01-08T06:47:30.627Z,103329.00
2024-01-08T06:51:32.174Z,103336.06
2024-01-08T06:55:33.797Z,103340.94
2024-01-08T06:59:35.339Z,103347.91
2024-01-08T07:03:36.881Z,103366.94
2024-01-08T07:07:39.010Z,103375.22
2024-01-08T07:11:40.619Z,103374.97
2024-01-08T07:15:44.851Z,103369.41
2024-01-08T07:19:46.313Z,103377.84
2024-01-08T07:23:49.558Z,103388.66
2024-01-08T07:27:51.537Z,103399.00
2024-01-08T07:31:53.238Z,103395.66
2024-01-08T07:35:54.941Z,103404.50
2024-01-08T07:39:56.423Z,103417.38
2024-01-08T07:43:57.923Z,103413.28
2024-01-08T07:47:59.719Z,103425.56
2024-01-08T07:52:01.622Z,103429.72
2024-01-08T07:56:03.882Z,103433.22
2024-01-08T08:00:10.612Z,103441.13
2024-01-08T08:04:12.379Z,103450.97
2024-01-08T08:08:14.937Z,103445.16
2024-01-08T08:12:16.844Z,103450.50
2024-01-08T08:16:18.536Z,103454.81
2024-01-08T08:20:21.742Z,103463.53
2024-01-08T08:24:23.708Z,103467.41
2024-01-08T08:28:25.452Z,103465.25
2024-01-08T08:32:27.211Z,103466.34
2024-01-08T08:36:29.602Z,103475.75
2024-01-08T08:40:31.136Z,103471.25
2024-01-08T08:44:32.808Z,103478.72
2024-01-08T08:48:34.373Z,103487.03
2024-01-08T08:52:35.947Z,103475.28
2024-01-08T08:56:37.681Z,103486.81
2024-01-08T09:00:39.430Z,103494.88
2024-01-08T09:04:41.028Z,103494.59
2024-01-08T09:08:42.834Z,103506.91
2024-01-08T09:12:46.897Z,103513.53
2024-01-08T09:16:48.610Z,103514.25
2024-01-08T09:20:50.195Z,103515.94
2024-01-08T09:24:51.766Z,103529.13
2024-01-08T09:28:53.289Z,103532.06
2024-01-08T09:32:55.019Z,103542.00
2024-01-08T09:36:56.789Z,103536.38
2024-01-08T09:41:01.702Z,103545.47
2024-01-08T09:45:12.119Z,103553.34
2024-01-08T09:49:16.025Z,103538.63
2024-01-08T09:53:18.209Z,103547.75
2024-01-08T09:57:19.724Z,103546.84
2024-01-08T10:01:21.329Z,103547.16
2024-01-08T10:05:23.249Z,103539.31
2024-01-08T10:09:25.646Z,103536.09
2024-01-08T10:13:27.857Z,103541.06
2024-01-08T10:17:31.719Z,103532.38
2024-01-08T10:21:33.398Z,103532.66
2024-01-08T10:25:38.967Z,103531.44
2024-01-08T10:29:41.869Z,103530.66
2024-01-08T10:33:44.493Z,103537.47
2024-01-08T10:37:48.550Z,103532.81
2024-01-08T10:41:50.855Z,103538.69
2024-01-08T10:45:57.348Z,103533.25
2024-01-08T10:50:04.119Z,103544.28
2024-01-08T10:54:08.670Z,103540.75
2024-01-08T10:58:24.119Z,103554.84
2024-01-08T11:02:27.675Z,103541.78
2024-01-08T11:06:43.767Z,103550.97
2024-01-08T11:10:46.754Z,103552.91
2024-01-08T11:14:48.708Z,103549.38
2024-01-08T11:18:50.581Z,103552.94
2024-01-08T11:22:54.195Z,103548.69
2024-01-08T11:26:55.697Z,103547.25
2024-01-08T11:31:20.138Z,103558.69
2024-01-08T11:35:29.140Z,103552.97
2024-01-08T11:39:39.445Z,103558.28
2024-01-08T11:43:41.364Z,103559.91
2024-01-08T11:47:44.636Z,103559.22
2024-01-08T11:51:50.141Z,103565.72
2024-01-08T11:55:51.717Z,103563.97
2024-01-08T11:59:53.844Z,103556.25
2024-01-08T12:03:59.755Z,103563.38
2024-01-08T12:08:01.469Z,103576.03
2024-01-08T12:12:08.037Z,103591.16
2024-01-08T12:16:09.736Z,103584.09
2024-01-08T12:20:12.677Z,103586.69
2024-01-08T12:24:14.963Z,103577.75
2024-01-08T12:28:16.460Z,103585.25
2024-01-08T12:32:22.672Z,103583.84
2024-01-08T12:36:24.273Z,103593.28
2024-01-08T12:40:25.773Z,103601.00
2024-01-08T12:44:29.401Z,103596.31
2024-01-08T12:48:31.117Z,103595.22
2024-01-08T12:52:32.778Z,103606.88
2024-01-08T12:56:34.384Z,103595.91
2024-01-08T13:00:37.019Z,103610.59
2024-01-08T13:04:38.791Z,103608.03
2024-01-08T13:08:42.413Z,103613.84
2024-01-08T13:12:44.097Z,103603.84
2024-01-08T13:16:50.136Z,103601.53
2024-01-08T13:20:52.165Z,103597.44
2024-01-08T13:25:00.556Z,103604.69
2024-01-08T13:29:02.057Z,103604.00
2024-01-08T13:33:04.031Z,103606.88
2024-01-08T13:37:05.801Z,103601.78
2024-01-08T13:41:09.274Z,103609.28
2024-01-08T13:45:11.700Z,103604.03
2024-01-08T13:49:13.391Z,103612.91
2024-01-08T13:53:15.594Z,103615.88
2024-01-08T13:57:17.075Z,103620.94
2024-01-08T14:01:18.754Z,103625.50
2024-01-08T14:05:20.539Z,103626.31
2024-01-08T14:09:22.115Z,103629.13
2024-01-08T14:13:23.601Z,103630.69
2024-01-08T14:17:25.169Z,103633.78
2024-01-08T14:21:27.139Z,103636.31
2024-01-08T14:25:28.675Z,103652.00
2024-01-08T14:29:30.205Z,103648.00
2024-01-08T14:33:32.028Z,103645.41
2024-01-08T14:37:33.904Z,103653.25
2024-01-08T14:41:35.589Z,103654.16
2024-01-08T14:45:37.303Z,103654.09
2024-01-08T14:49:41.592Z,103665.59
2024-01-08T14:53:46.054Z,103663.69
2024-01-08T14:57:47.573Z,103665.28
2024-01-08T15:01:49.080Z,103661.50
2024-01-08T15:05:50.706Z,103663.66
2024-01-08T15:09:52.214Z,103657.94
2024-01-08T15:13:53.804Z,103654.03
2024-01-08T15:17:55.648Z,103658.06
2024-01-08T15:22:00.250Z,103665.91
2024-01-08T15:26:02.809Z,103665.81
2024-01-08T15:30:14.916Z,103665.19
2024-01-08T15:34:16.747Z,103669.09
2024-01-08T15:38:18.321Z,103663.16
2024-01-08T15:42:19.976Z,103673.63
2024-01-08T15:46:21.522Z,103675.16
2024-01-08T15:50:23.455Z,103672.28
2024-01-08T15:54:25.082Z,103678.88
2024-01-08T15:58:26.703Z,103685.16
2024-01-08T16:02:28.501Z,103688.50
2024-01-08T16:06:30.248Z,103689.63
2024-01-08T16:10:31.894Z,103688.97
2024-01-08T16:14:33.982Z,103698.56
2024-01-08T16:18:37.142Z,103703.13
2024-01-08T16:22:38.978Z,103694.72
2024-01-08T16:26:41.920Z,103698.38
2024-01-08T16:30:46.247Z,103703.91
2024-01-08T16:34:53.310Z,103714.06
2024-01-08T16:38:57.747Z,103712.38
2024-01-08T16:43:00.305Z,103712.75
2024-01-08T16:47:01.816Z,103720.19
2024-01-08T16:51:07.260Z,103709.22
2024-01-08T16:55:08.950Z,103716.09
2024-01-08T16:59:10.649Z,103716.94
2024-01-08T17:03:12.425Z,103723.78
2024-01-08T17:07:14.001Z,103721.19
2024-01-08T17:11:15.645Z,103736.31
2024-01-08T17:15:17.159Z,103737.75
2024-01-08T17:19:19.546Z,103732.75
2024-01-08T17:23:21.699Z,103742.19
2024-01-08T17:27:23.246Z,103747.72
2024-01-08T17:31:25.490Z,103753.31
2024-01-08T17:35:27.054Z,103756.41
2024-01-08T17:39:28.627Z,103761.56
2024-01-08T17:43:30.117Z,103765.16
2024-01-08T17:47:32.765Z,103764.06
2024-01-08T17:51:34.450Z,103760.38
2024-01-08T17:55:35.982Z,103766.06
2024-01-08T17:59:38.268Z,103779.47
2024-01-08T18:03:39.940Z,103791.63
2024-01-08T18:07:41.420Z,103794.19
2024-01-08T18:11:44.256Z,103801.22
2024-01-08T18:15:45.965Z,103798.41
2024-01-08T18:19:47.738Z,103791.94
2024-01-08T18:23:49.550Z,103792.13
2024-01-08T18:27:51.809Z,103796.88
2024-01-08T18:31:53.351Z,103805.31
2024-01-08T18:35:55.040Z,103806.16
2024-01-08T18:39:57.152Z,103817.63
2024-01-08T18:43:59.376Z,103818.75
2024-01-08T18:48:01.339Z,103820.00
2024-01-08T18:52:03.771Z,103826.28
2024-01-08T18:56:05.503Z,103811.28
2024-01-08T19:00:07.916Z,103827.63
2024-01-08T19:04:09.966Z,103820.94
2024-01-08T19:08:11.766Z,103823.34
2024-01-08T19:12:14.048Z,103824.25
2024-01-08T19:16:20.404Z,103821.72
2024-01-08T19:20:24.858Z,103827.50
2024-01-08T19:24:29.513Z,103818.41
2024-01-08T19:28:32.375Z,103829.19
2024-01-08T19:32:34.025Z,103835.72
2024-01-08T19:36:35.578Z,103837.91
2024-01-08T19:40:37.057Z,103835.47
2024-01-08T19:44:39.389Z,103834.97
2024-01-08T19:48:40.968Z,103833.34
2024-01-08T19:52:42.556Z,103838.03
2024-01-08T19:56:45.640Z,103833.44
2024-01-08T20:00:47.553Z,103833.69
2024-01-08T20:04:49.363Z,103839.84
2024-01-08T20:08:50.957Z,103841.78
2024-01-08T20:12:52.648Z,103841.28
2024-01-08T20:16:54.262Z,103846.72
2024-01-08T20:21:01.632Z,103846.31
2024-01-08T20:25:04.013Z,103843.59
2024-01-08T20:29:05.665Z,103843.81
2024-01-08T20:33:07.481Z,103844.25
2024-01-08T20:37:09.108Z,103835.78
2024-01-08T20:41:11.801Z,103840.72
2024-01-08T20:45:13.361Z,103836.19
2024-01-08T20:49:15.231Z,103835.59
2024-01-08T20:53:17.005Z,103834.84
2024-01-08T20:57:18.715Z,103827.19
2024-01-08T21:01:21.043Z,103837.28
2024-01-08T21:05:23.333Z,103835.47
2024-01-08T21:09:24.962Z,103839.06
2024-01-08T21:13:26.548Z,103838.78
2024-01-08T21:17:28.268Z,103832.00
2024-01-08T21:21:29.977Z,103844.91
2024-01-08T21:25:31.730Z,103831.31
2024-01-08T21:29:33.465Z,103836.44
2024-01-08T21:33:38.444Z,103844.31
2024-01-08T21:37:40.284Z,103844.66
2024-01-08T21:41:42.874Z,103841.06
2024-01-08T21:45:44.646Z,103837.19
2024-01-08T21:49:46.447Z,103840.00
2024-01-08T21:53:48.508Z,103838.19
2024-01-08T21:57:50.064Z,103852.72
2024-01-08T22:01:51.592Z,103845.69
2024-01-08T22:05:54.231Z,103856.34
2024-01-08T22:09:55.889Z,103850.78
2024-01-08T22:13:57.390Z,103857.78
2024-01-08T22:17:59.202Z,103859.22
2024-01-08T22:22:01.066Z,103861.16
2024-01-08T22:26:03.579Z,103852.94
2024-01-08T22:30:05.942Z,103858.56
2024-01-08T22:34:08.264Z,103849.31
2024-01-08T22:38:10.061Z,103858.38
2024-01-08T22:42:11.903Z,103850.69
2024-01-08T22:50:49.435Z,103860.50
2024-01-08T22:54:51.146Z,103857.47
2024-01-08T22:58:52.663Z,103863.44
2024-01-08T23:02:54.188Z,103861.09
2024-01-08T23:06:55.765Z,103860.97
2024-01-08T23:10:57.291Z,103866.97
2024-01-08T23:14:58.975Z,103869.13
2024-01-08T23:19:00.594Z,103862.13
2024-01-08T23:23:02.809Z,103853.88
2024-01-08T23:27:06.095Z,103853.59
2024-01-08T23:31:07.802Z,103851.56
2024-01-08T23:35:09.726Z,103846.72
2024-01-08T23:39:11.391Z,103855.09
2024-01-08T23:43:16.948Z,103848.75
2024-01-08T23:47:18.586Z,103853.75
2024-01-08T23:51:20.102Z,103836.84
2024-01-08T23:55:21.573Z,103836.59
2024-01-08T23:59:23.057Z,103839.91
